Terminal Aerodrome Forecast
Issued by NWS Flagstaff, AZ

Home | Current Version | Previous Version | Text Only | Print | Product List | Glossary On
Versions: 1 2 3 4 5 6 7 8 9 10 11 12 13 14 15 16 17 18 19 20 21 22 23
000
FTUS45 KFGZ 301121
TAFFLG
TAF
KFLG 301121Z 3012/0112 VRB03KT P6SM SCT110 BKN130
     FM301800 VRB06KT P6SM SCT060 BKN100
      TEMPO 3020/3024 5SM TSRA BKN050CB=

USA.gov is the U.S. government's official web portal to all federal, state and local government web resources and services.